sensor_id;sensor_type;location;lat;lon;timestamp;P1;durP1;ratioP1;P2;durP2;ratioP2
34982;SDS011;21187;50.976;13.720;2023-09-12T00:04:05;9.15;;;5.38;;
34982;SDS011;21187;50.976;13.720;2023-09-12T00:09:07;8.57;;;5.22;;
34982;SDS011;21187;50.976;13.720;2023-09-12T00:14:10;11.68;;;5.43;;
34982;SDS011;21187;50.976;13.720;2023-09-12T00:19:17;11.98;;;4.78;;
34982;SDS011;21187;50.976;13.720;2023-09-12T00:24:19;17.75;;;5.47;;
34982;SDS011;21187;50.976;13.720;2023-09-12T00:29:20;12.27;;;5.68;;
34982;SDS011;21187;50.976;13.720;2023-09-12T00:34:22;9.88;;;4.80;;
34982;SDS011;21187;50.976;13.720;2023-09-12T00:39:24;9.45;;;4.80;;
34982;SDS011;21187;50.976;13.720;2023-09-12T00:44:26;16.85;;;5.60;;
34982;SDS011;21187;50.976;13.720;2023-09-12T00:49:28;13.98;;;5.75;;
34982;SDS011;21187;50.976;13.720;2023-09-12T00:54:31;13.48;;;5.53;;
34982;SDS011;21187;50.976;13.720;2023-09-12T00:59:33;12.43;;;5.65;;
34982;SDS011;21187;50.976;13.720;2023-09-12T01:04:35;12.15;;;5.55;;
34982;SDS011;21187;50.976;13.720;2023-09-12T01:09:39;21.83;;;5.80;;
34982;SDS011;21187;50.976;13.720;2023-09-12T01:14:42;9.23;;;5.93;;
34982;SDS011;21187;50.976;13.720;2023-09-12T01:19:44;14.20;;;5.88;;
34982;SDS011;21187;50.976;13.720;2023-09-12T01:30:20;8.68;;;5.72;;
34982;SDS011;21187;50.976;13.720;2023-09-12T01:35:24;8.48;;;5.80;;
34982;SDS011;21187;50.976;13.720;2023-09-12T01:40:32;9.88;;;6.00;;
34982;SDS011;21187;50.976;13.720;2023-09-12T01:45:36;11.98;;;6.30;;
34982;SDS011;21187;50.976;13.720;2023-09-12T01:50:39;9.55;;;6.43;;
34982;SDS011;21187;50.976;13.720;2023-09-12T01:55:44;11.85;;;6.85;;
34982;SDS011;21187;50.976;13.720;2023-09-12T02:00:47;11.88;;;6.03;;
34982;SDS011;21187;50.976;13.720;2023-09-12T02:05:49;14.32;;;6.13;;
34982;SDS011;21187;50.976;13.720;2023-09-12T02:10:51;10.27;;;6.05;;
34982;SDS011;21187;50.976;13.720;2023-09-12T02:16:00;8.18;;;5.63;;
34982;SDS011;21187;50.976;13.720;2023-09-12T02:21:05;14.50;;;7.60;;
34982;SDS011;21187;50.976;13.720;2023-09-12T02:26:06;15.02;;;6.72;;
34982;SDS011;21187;50.976;13.720;2023-09-12T02:31:12;10.18;;;5.25;;
34982;SDS011;21187;50.976;13.720;2023-09-12T02:36:14;11.95;;;5.22;;
34982;SDS011;21187;50.976;13.720;2023-09-12T02:41:15;14.75;;;5.13;;
34982;SDS011;21187;50.976;13.720;2023-09-12T02:46:17;16.58;;;5.60;;
34982;SDS011;21187;50.976;13.720;2023-09-12T02:51:19;7.93;;;4.72;;
34982;SDS011;21187;50.976;13.720;2023-09-12T02:56:21;8.90;;;5.10;;
34982;SDS011;21187;50.976;13.720;2023-09-12T03:01:23;7.20;;;4.25;;
34982;SDS011;21187;50.976;13.720;2023-09-12T03:06:30;11.77;;;5.22;;
34982;SDS011;21187;50.976;13.720;2023-09-12T03:11:33;9.02;;;5.25;;
34982;SDS011;21187;50.976;13.720;2023-09-12T03:16:35;9.15;;;4.32;;
34982;SDS011;21187;50.976;13.720;2023-09-12T03:21:38;8.35;;;4.13;;
34982;SDS011;21187;50.976;13.720;2023-09-12T03:26:41;15.65;;;4.78;;
34982;SDS011;21187;50.976;13.720;2023-09-12T03:31:43;11.18;;;4.22;;
34982;SDS011;21187;50.976;13.720;2023-09-12T03:36:45;9.50;;;4.68;;
34982;SDS011;21187;50.976;13.720;2023-09-12T03:41:47;9.13;;;4.35;;
34982;SDS011;21187;50.976;13.720;2023-09-12T03:46:49;9.98;;;5.15;;
34982;SDS011;21187;50.976;13.720;2023-09-12T03:51:52;7.85;;;4.50;;
34982;SDS011;21187;50.976;13.720;2023-09-12T03:56:53;10.57;;;5.32;;
34982;SDS011;21187;50.976;13.720;2023-09-12T04:01:55;7.80;;;4.40;;
34982;SDS011;21187;50.976;13.720;2023-09-12T04:06:58;11.73;;;5.32;;
34982;SDS011;21187;50.976;13.720;2023-09-12T04:12:00;12.85;;;4.72;;
34982;SDS011;21187;50.976;13.720;2023-09-12T04:17:03;9.05;;;4.60;;
34982;SDS011;21187;50.976;13.720;2023-09-12T04:22:09;8.98;;;5.00;;
34982;SDS011;21187;50.976;13.720;2023-09-12T04:27:11;15.43;;;5.53;;
34982;SDS011;21187;50.976;13.720;2023-09-12T04:32:13;16.27;;;4.60;;
34982;SDS011;21187;50.976;13.720;2023-09-12T04:37:16;14.75;;;4.63;;
34982;SDS011;21187;50.976;13.720;2023-09-12T04:42:18;11.18;;;4.45;;
34982;SDS011;21187;50.976;13.720;2023-09-12T04:47:20;24.75;;;5.20;;
34982;SDS011;21187;50.976;13.720;2023-09-12T04:52:22;15.55;;;5.28;;
34982;SDS011;21187;50.976;13.720;2023-09-12T04:57:24;9.32;;;4.75;;
34982;SDS011;21187;50.976;13.720;2023-09-12T05:02:26;16.40;;;5.82;;
34982;SDS011;21187;50.976;13.720;2023-09-12T05:07:28;16.85;;;5.45;;
34982;SDS011;21187;50.976;13.720;2023-09-12T05:12:30;16.02;;;5.93;;
34982;SDS011;21187;50.976;13.720;2023-09-12T05:17:33;11.25;;;5.20;;
34982;SDS011;21187;50.976;13.720;2023-09-12T05:22:36;13.15;;;4.72;;
34982;SDS011;21187;50.976;13.720;2023-09-12T05:27:37;13.73;;;5.15;;
34982;SDS011;21187;50.976;13.720;2023-09-12T05:32:40;19.55;;;6.85;;
34982;SDS011;21187;50.976;13.720;2023-09-12T05:37:43;10.38;;;5.43;;
34982;SDS011;21187;50.976;13.720;2023-09-12T05:42:45;9.60;;;4.97;;
34982;SDS011;21187;50.976;13.720;2023-09-12T05:47:47;19.85;;;6.43;;
34982;SDS011;21187;50.976;13.720;2023-09-12T05:52:49;19.60;;;4.70;;
34982;SDS011;21187;50.976;13.720;2023-09-12T05:57:53;15.95;;;4.50;;
34982;SDS011;21187;50.976;13.720;2023-09-12T06:02:56;12.55;;;5.30;;
34982;SDS011;21187;50.976;13.720;2023-09-12T06:07:58;11.52;;;4.88;;
34982;SDS011;21187;50.976;13.720;2023-09-12T06:13:00;11.25;;;4.53;;
34982;SDS011;21187;50.976;13.720;2023-09-12T06:18:01;12.07;;;5.03;;
34982;SDS011;21187;50.976;13.720;2023-09-12T06:23:03;10.05;;;4.60;;
34982;SDS011;21187;50.976;13.720;2023-09-12T06:28:08;9.52;;;4.40;;
34982;SDS011;21187;50.976;13.720;2023-09-12T06:33:11;11.43;;;4.22;;
34982;SDS011;21187;50.976;13.720;2023-09-12T06:38:13;9.98;;;4.45;;
34982;SDS011;21187;50.976;13.720;2023-09-12T06:43:15;15.23;;;4.47;;
34982;SDS011;21187;50.976;13.720;2023-09-12T06:48:17;8.05;;;4.35;;
34982;SDS011;21187;50.976;13.720;2023-09-12T06:53:19;12.82;;;4.68;;
34982;SDS011;21187;50.976;13.720;2023-09-12T06:58:21;10.63;;;4.75;;
34982;SDS011;21187;50.976;13.720;2023-09-12T07:03:22;7.03;;;3.88;;
34982;SDS011;21187;50.976;13.720;2023-09-12T07:08:25;16.42;;;5.47;;
34982;SDS011;21187;50.976;13.720;2023-09-12T07:13:30;10.65;;;4.28;;
34982;SDS011;21187;50.976;13.720;2023-09-12T07:18:32;19.60;;;5.03;;
34982;SDS011;21187;50.976;13.720;2023-09-12T07:23:34;10.93;;;5.03;;
34982;SDS011;21187;50.976;13.720;2023-09-12T07:28:36;10.93;;;5.05;;
34982;SDS011;21187;50.976;13.720;2023-09-12T07:33:38;15.70;;;5.30;;
34982;SDS011;21187;50.976;13.720;2023-09-12T07:38:41;11.30;;;4.38;;
34982;SDS011;21187;50.976;13.720;2023-09-12T07:43:44;12.85;;;4.22;;
34982;SDS011;21187;50.976;13.720;2023-09-12T07:48:46;13.60;;;4.47;;
34982;SDS011;21187;50.976;13.720;2023-09-12T07:53:48;12.85;;;5.15;;
34982;SDS011;21187;50.976;13.720;2023-09-12T07:58:50;11.25;;;5.18;;
34982;SDS011;21187;50.976;13.720;2023-09-12T08:03:52;11.52;;;4.93;;
34982;SDS011;21187;50.976;13.720;2023-09-12T08:08:54;10.80;;;5.10;;
34982;SDS011;21187;50.976;13.720;2023-09-12T08:13:56;8.52;;;4.65;;
34982;SDS011;21187;50.976;13.720;2023-09-12T08:18:59;12.10;;;5.70;;
34982;SDS011;21187;50.976;13.720;2023-09-12T08:24:00;13.60;;;5.20;;
34982;SDS011;21187;50.976;13.720;2023-09-12T08:29:02;13.55;;;5.25;;
34982;SDS011;21187;50.976;13.720;2023-09-12T08:34:04;9.27;;;4.32;;
34982;SDS011;21187;50.976;13.720;2023-09-12T08:39:06;11.93;;;4.82;;
34982;SDS011;21187;50.976;13.720;2023-09-12T08:44:13;12.60;;;4.68;;
34982;SDS011;21187;50.976;13.720;2023-09-12T08:49:16;18.50;;;5.60;;
34982;SDS011;21187;50.976;13.720;2023-09-12T08:54:18;12.20;;;4.53;;
34982;SDS011;21187;50.976;13.720;2023-09-12T08:59:20;15.68;;;5.35;;
34982;SDS011;21187;50.976;13.720;2023-09-12T09:04:22;11.60;;;4.53;;
34982;SDS011;21187;50.976;13.720;2023-09-12T09:09:28;10.82;;;4.53;;
34982;SDS011;21187;50.976;13.720;2023-09-12T09:14:30;10.45;;;5.00;;
34982;SDS011;21187;50.976;13.720;2023-09-12T09:19:41;12.07;;;4.55;;
34982;SDS011;21187;50.976;13.720;2023-09-12T09:24:44;12.48;;;4.72;;
34982;SDS011;21187;50.976;13.720;2023-09-12T09:29:46;9.82;;;4.68;;
34982;SDS011;21187;50.976;13.720;2023-09-12T09:34:52;7.03;;;4.03;;
34982;SDS011;21187;50.976;13.720;2023-09-12T09:39:54;11.18;;;4.15;;
34982;SDS011;21187;50.976;13.720;2023-09-12T09:44:57;14.02;;;4.10;;
34982;SDS011;21187;50.976;13.720;2023-09-12T09:49:59;8.75;;;4.40;;
34982;SDS011;21187;50.976;13.720;2023-09-12T09:55:01;8.80;;;4.13;;
34982;SDS011;21187;50.976;13.720;2023-09-12T10:00:03;10.43;;;4.25;;
34982;SDS011;21187;50.976;13.720;2023-09-12T10:05:09;11.70;;;4.00;;
34982;SDS011;21187;50.976;13.720;2023-09-12T10:10:12;10.88;;;4.07;;
34982;SDS011;21187;50.976;13.720;2023-09-12T10:15:17;14.10;;;4.63;;
34982;SDS011;21187;50.976;13.720;2023-09-12T10:20:21;14.75;;;3.53;;
34982;SDS011;21187;50.976;13.720;2023-09-12T10:25:28;16.27;;;4.13;;
34982;SDS011;21187;50.976;13.720;2023-09-12T10:30:31;16.23;;;4.15;;
34982;SDS011;21187;50.976;13.720;2023-09-12T10:35:34;16.50;;;3.72;;
34982;SDS011;21187;50.976;13.720;2023-09-12T10:40:37;16.15;;;4.35;;
34982;SDS011;21187;50.976;13.720;2023-09-12T10:45:45;13.98;;;4.72;;
34982;SDS011;21187;50.976;13.720;2023-09-12T10:50:47;13.20;;;4.38;;
34982;SDS011;21187;50.976;13.720;2023-09-12T11:06:30;18.73;;;4.72;;
34982;SDS011;21187;50.976;13.720;2023-09-12T11:11:32;17.80;;;4.13;;
34982;SDS011;21187;50.976;13.720;2023-09-12T11:16:34;12.80;;;3.80;;
34982;SDS011;21187;50.976;13.720;2023-09-12T11:21:37;9.68;;;4.10;;
34982;SDS011;21187;50.976;13.720;2023-09-12T11:27:01;11.65;;;3.75;;
34982;SDS011;21187;50.976;13.720;2023-09-12T11:32:09;20.98;;;4.93;;
34982;SDS011;21187;50.976;13.720;2023-09-12T11:37:11;13.85;;;4.28;;
34982;SDS011;21187;50.976;13.720;2023-09-12T11:42:25;15.70;;;4.30;;
34982;SDS011;21187;50.976;13.720;2023-09-12T11:47:28;20.58;;;4.72;;
34982;SDS011;21187;50.976;13.720;2023-09-12T11:52:30;13.48;;;4.43;;
34982;SDS011;21187;50.976;13.720;2023-09-12T11:57:32;23.20;;;4.28;;
34982;SDS011;21187;50.976;13.720;2023-09-12T12:02:34;14.50;;;4.20;;
34982;SDS011;21187;50.976;13.720;2023-09-12T12:07:36;14.60;;;5.32;;
34982;SDS011;21187;50.976;13.720;2023-09-12T12:12:39;12.82;;;4.13;;
34982;SDS011;21187;50.976;13.720;2023-09-12T12:17:41;14.80;;;3.75;;
34982;SDS011;21187;50.976;13.720;2023-09-12T12:22:43;12.50;;;4.05;;
34982;SDS011;21187;50.976;13.720;2023-09-12T12:27:45;15.70;;;4.75;;
34982;SDS011;21187;50.976;13.720;2023-09-12T12:32:47;15.35;;;4.43;;
34982;SDS011;21187;50.976;13.720;2023-09-12T12:37:54;15.88;;;4.35;;
34982;SDS011;21187;50.976;13.720;2023-09-12T12:43:17;16.58;;;4.35;;
34982;SDS011;21187;50.976;13.720;2023-09-12T12:48:35;8.68;;;3.95;;
34982;SDS011;21187;50.976;13.720;2023-09-12T12:58:55;13.10;;;4.10;;
34982;SDS011;21187;50.976;13.720;2023-09-12T13:04:07;13.70;;;4.35;;
34982;SDS011;21187;50.976;13.720;2023-09-12T13:09:10;13.45;;;4.35;;
34982;SDS011;21187;50.976;13.720;2023-09-12T13:14:13;14.80;;;4.05;;
34982;SDS011;21187;50.976;13.720;2023-09-12T13:19:14;16.80;;;4.38;;
34982;SDS011;21187;50.976;13.720;2023-09-12T13:24:16;14.20;;;4.28;;
34982;SDS011;21187;50.976;13.720;2023-09-12T13:29:18;10.60;;;4.07;;
34982;SDS011;21187;50.976;13.720;2023-09-12T13:34:21;24.48;;;4.65;;
34982;SDS011;21187;50.976;13.720;2023-09-12T13:39:22;13.73;;;3.80;;
34982;SDS011;21187;50.976;13.720;2023-09-12T13:44:24;17.25;;;4.40;;
34982;SDS011;21187;50.976;13.720;2023-09-12T13:49:26;9.25;;;3.75;;
34982;SDS011;21187;50.976;13.720;2023-09-12T13:54:28;14.80;;;4.13;;
34982;SDS011;21187;50.976;13.720;2023-09-12T13:59:30;16.52;;;4.53;;
34982;SDS011;21187;50.976;13.720;2023-09-12T14:04:45;15.52;;;4.13;;
34982;SDS011;21187;50.976;13.720;2023-09-12T14:09:52;18.75;;;5.18;;
34982;SDS011;21187;50.976;13.720;2023-09-12T14:14:57;20.20;;;4.97;;
34982;SDS011;21187;50.976;13.720;2023-09-12T14:20:09;15.30;;;5.22;;
34982;SDS011;21187;50.976;13.720;2023-09-12T14:25:11;15.35;;;4.28;;
34982;SDS011;21187;50.976;13.720;2023-09-12T14:30:16;16.40;;;4.68;;
34982;SDS011;21187;50.976;13.720;2023-09-12T14:35:18;12.88;;;3.58;;
34982;SDS011;21187;50.976;13.720;2023-09-12T14:40:20;12.65;;;3.90;;
34982;SDS011;21187;50.976;13.720;2023-09-12T14:45:22;10.93;;;3.78;;
34982;SDS011;21187;50.976;13.720;2023-09-12T14:50:27;14.77;;;4.20;;
34982;SDS011;21187;50.976;13.720;2023-09-12T14:55:43;12.80;;;4.53;;
34982;SDS011;21187;50.976;13.720;2023-09-12T15:00:45;17.48;;;4.20;;
34982;SDS011;21187;50.976;13.720;2023-09-12T15:05:47;13.93;;;3.42;;
34982;SDS011;21187;50.976;13.720;2023-09-12T15:10:49;16.23;;;4.00;;
34982;SDS011;21187;50.976;13.720;2023-09-12T15:15:51;13.82;;;4.45;;
34982;SDS011;21187;50.976;13.720;2023-09-12T15:20:53;11.75;;;3.83;;
34982;SDS011;21187;50.976;13.720;2023-09-12T15:25:55;18.15;;;4.85;;
34982;SDS011;21187;50.976;13.720;2023-09-12T15:30:57;12.82;;;3.65;;
34982;SDS011;21187;50.976;13.720;2023-09-12T15:36:02;13.63;;;3.70;;
34982;SDS011;21187;50.976;13.720;2023-09-12T15:41:04;12.57;;;3.72;;
34982;SDS011;21187;50.976;13.720;2023-09-12T15:46:09;12.30;;;4.55;;
34982;SDS011;21187;50.976;13.720;2023-09-12T15:51:11;12.25;;;3.58;;
34982;SDS011;21187;50.976;13.720;2023-09-12T15:56:13;11.32;;;3.72;;
34982;SDS011;21187;50.976;13.720;2023-09-12T16:01:16;19.30;;;4.82;;
34982;SDS011;21187;50.976;13.720;2023-09-12T16:06:18;19.00;;;3.75;;
34982;SDS011;21187;50.976;13.720;2023-09-12T16:11:20;7.75;;;3.33;;
34982;SDS011;21187;50.976;13.720;2023-09-12T16:16:22;8.50;;;3.47;;
34982;SDS011;21187;50.976;13.720;2023-09-12T16:21:24;17.00;;;3.80;;
34982;SDS011;21187;50.976;13.720;2023-09-12T16:26:26;14.85;;;3.72;;
34982;SDS011;21187;50.976;13.720;2023-09-12T16:31:28;20.02;;;3.45;;
34982;SDS011;21187;50.976;13.720;2023-09-12T16:36:31;11.38;;;3.38;;
34982;SDS011;21187;50.976;13.720;2023-09-12T16:41:33;11.60;;;3.10;;
34982;SDS011;21187;50.976;13.720;2023-09-12T16:46:35;15.40;;;3.15;;
34982;SDS011;21187;50.976;13.720;2023-09-12T16:51:37;13.85;;;3.58;;
34982;SDS011;21187;50.976;13.720;2023-09-12T16:56:39;14.73;;;3.72;;
34982;SDS011;21187;50.976;13.720;2023-09-12T17:01:41;18.85;;;4.60;;
34982;SDS011;21187;50.976;13.720;2023-09-12T17:06:43;14.10;;;4.10;;
34982;SDS011;21187;50.976;13.720;2023-09-12T17:11:46;14.70;;;4.45;;
34982;SDS011;21187;50.976;13.720;2023-09-12T17:16:48;9.90;;;3.78;;
34982;SDS011;21187;50.976;13.720;2023-09-12T17:21:50;17.92;;;3.75;;
34982;SDS011;21187;50.976;13.720;2023-09-12T17:26:52;14.05;;;3.88;;
34982;SDS011;21187;50.976;13.720;2023-09-12T17:31:55;16.08;;;4.05;;
34982;SDS011;21187;50.976;13.720;2023-09-12T17:36:58;19.52;;;4.32;;
34982;SDS011;21187;50.976;13.720;2023-09-12T17:42:00;10.82;;;4.63;;
34982;SDS011;21187;50.976;13.720;2023-09-12T17:47:02;8.20;;;3.90;;
34982;SDS011;21187;50.976;13.720;2023-09-12T17:52:04;12.52;;;3.90;;
34982;SDS011;21187;50.976;13.720;2023-09-12T17:57:06;18.05;;;5.20;;
34982;SDS011;21187;50.976;13.720;2023-09-12T18:02:09;12.57;;;4.30;;
34982;SDS011;21187;50.976;13.720;2023-09-12T18:07:11;12.40;;;4.05;;
34982;SDS011;21187;50.976;13.720;2023-09-12T18:12:13;13.52;;;4.10;;
34982;SDS011;21187;50.976;13.720;2023-09-12T18:17:15;10.98;;;3.95;;
34982;SDS011;21187;50.976;13.720;2023-09-12T18:22:17;15.50;;;4.78;;
34982;SDS011;21187;50.976;13.720;2023-09-12T18:27:19;11.50;;;3.80;;
34982;SDS011;21187;50.976;13.720;2023-09-12T18:32:21;16.63;;;3.75;;
34982;SDS011;21187;50.976;13.720;2023-09-12T18:37:23;11.60;;;4.00;;
34982;SDS011;21187;50.976;13.720;2023-09-12T18:42:25;18.20;;;4.40;;
34982;SDS011;21187;50.976;13.720;2023-09-12T18:47:27;13.90;;;4.05;;
34982;SDS011;21187;50.976;13.720;2023-09-12T18:52:31;16.83;;;4.55;;
34982;SDS011;21187;50.976;13.720;2023-09-12T18:57:53;11.95;;;4.13;;
34982;SDS011;21187;50.976;13.720;2023-09-12T19:02:55;16.73;;;4.03;;
34982;SDS011;21187;50.976;13.720;2023-09-12T19:07:57;16.77;;;4.20;;
34982;SDS011;21187;50.976;13.720;2023-09-12T19:12:59;18.85;;;4.57;;
34982;SDS011;21187;50.976;13.720;2023-09-12T19:18:01;11.55;;;4.10;;
34982;SDS011;21187;50.976;13.720;2023-09-12T19:23:03;16.55;;;4.88;;
34982;SDS011;21187;50.976;13.720;2023-09-12T19:28:05;13.77;;;4.55;;
34982;SDS011;21187;50.976;13.720;2023-09-12T19:33:10;11.90;;;4.90;;
34982;SDS011;21187;50.976;13.720;2023-09-12T19:38:12;22.65;;;5.00;;
34982;SDS011;21187;50.976;13.720;2023-09-12T19:43:15;14.13;;;4.85;;
34982;SDS011;21187;50.976;13.720;2023-09-12T19:48:16;21.00;;;5.13;;
34982;SDS011;21187;50.976;13.720;2023-09-12T19:53:18;13.98;;;4.65;;
34982;SDS011;21187;50.976;13.720;2023-09-12T19:58:20;7.00;;;4.22;;
34982;SDS011;21187;50.976;13.720;2023-09-12T20:03:22;10.90;;;4.68;;
34982;SDS011;21187;50.976;13.720;2023-09-12T20:08:24;15.30;;;4.75;;
34982;SDS011;21187;50.976;13.720;2023-09-12T20:13:27;16.80;;;5.60;;
34982;SDS011;21187;50.976;13.720;2023-09-12T20:18:29;16.80;;;5.05;;
34982;SDS011;21187;50.976;13.720;2023-09-12T20:23:31;17.90;;;4.65;;
34982;SDS011;21187;50.976;13.720;2023-09-12T20:28:34;21.88;;;5.30;;
34982;SDS011;21187;50.976;13.720;2023-09-12T20:33:37;23.50;;;6.40;;
34982;SDS011;21187;50.976;13.720;2023-09-12T20:38:46;18.08;;;5.28;;
34982;SDS011;21187;50.976;13.720;2023-09-12T20:48:51;14.77;;;5.63;;
34982;SDS011;21187;50.976;13.720;2023-09-12T20:53:53;18.63;;;5.38;;
34982;SDS011;21187;50.976;13.720;2023-09-12T20:58:55;16.20;;;5.22;;
34982;SDS011;21187;50.976;13.720;2023-09-12T21:03:57;16.60;;;5.47;;
34982;SDS011;21187;50.976;13.720;2023-09-12T21:08:59;18.55;;;5.45;;
34982;SDS011;21187;50.976;13.720;2023-09-12T21:14:01;21.83;;;5.72;;
34982;SDS011;21187;50.976;13.720;2023-09-12T21:19:03;15.48;;;5.35;;
34982;SDS011;21187;50.976;13.720;2023-09-12T21:24:05;16.52;;;5.20;;
34982;SDS011;21187;50.976;13.720;2023-09-12T21:29:07;14.50;;;5.65;;
34982;SDS011;21187;50.976;13.720;2023-09-12T21:34:09;15.25;;;5.30;;
34982;SDS011;21187;50.976;13.720;2023-09-12T21:39:11;13.93;;;5.90;;
34982;SDS011;21187;50.976;13.720;2023-09-12T21:44:12;13.57;;;5.75;;
34982;SDS011;21187;50.976;13.720;2023-09-12T21:49:14;13.32;;;6.22;;
34982;SDS011;21187;50.976;13.720;2023-09-12T21:54:16;13.55;;;6.05;;
34982;SDS011;21187;50.976;13.720;2023-09-12T21:59:18;22.42;;;7.07;;
34982;SDS011;21187;50.976;13.720;2023-09-12T22:04:20;14.73;;;6.25;;
34982;SDS011;21187;50.976;13.720;2023-09-12T22:09:22;17.58;;;6.80;;
34982;SDS011;21187;50.976;13.720;2023-09-12T22:14:24;14.60;;;6.40;;
34982;SDS011;21187;50.976;13.720;2023-09-12T22:19:26;11.48;;;6.25;;
34982;SDS011;21187;50.976;13.720;2023-09-12T22:24:28;16.05;;;6.82;;
34982;SDS011;21187;50.976;13.720;2023-09-12T22:29:30;15.95;;;6.82;;
34982;SDS011;21187;50.976;13.720;2023-09-12T22:34:32;17.42;;;6.93;;
34982;SDS011;21187;50.976;13.720;2023-09-12T22:39:34;17.45;;;6.53;;
34982;SDS011;21187;50.976;13.720;2023-09-12T22:44:36;21.45;;;7.05;;
34982;SDS011;21187;50.976;13.720;2023-09-12T22:49:38;16.15;;;7.15;;
34982;SDS011;21187;50.976;13.720;2023-09-12T22:54:39;14.48;;;7.40;;
34982;SDS011;21187;50.976;13.720;2023-09-12T22:59:41;19.90;;;6.70;;
34982;SDS011;21187;50.976;13.720;2023-09-12T23:04:43;14.18;;;7.13;;
34982;SDS011;21187;50.976;13.720;2023-09-12T23:09:46;19.13;;;7.07;;
34982;SDS011;21187;50.976;13.720;2023-09-12T23:14:48;16.13;;;8.15;;
34982;SDS011;21187;50.976;13.720;2023-09-12T23:19:55;19.77;;;7.88;;
34982;SDS011;21187;50.976;13.720;2023-09-12T23:24:57;21.30;;;8.35;;
34982;SDS011;21187;50.976;13.720;2023-09-12T23:29:59;21.55;;;7.88;;
34982;SDS011;21187;50.976;13.720;2023-09-12T23:35:01;14.95;;;7.50;;
34982;SDS011;21187;50.976;13.720;2023-09-12T23:40:03;16.58;;;7.68;;
34982;SDS011;21187;50.976;13.720;2023-09-12T23:45:07;16.63;;;7.78;;
34982;SDS011;21187;50.976;13.720;2023-09-12T23:50:09;19.50;;;8.20;;
34982;SDS011;21187;50.976;13.720;2023-09-12T23:55:11;15.40;;;7.35;;
